Main page
METAR-TAF:

METAR-TAF

Airports :

Oil platform

Sleipner, Norway

latitude: 58-22-00N, longitude: 001-54-25E, elevation: 50 m

Current weather observation

The report was made 32 minutes ago, at 20:50 UTC
Wind 21 kt from the West/Southwest
Temperature 11°C
Humidity 87%
Pressure 1014 hPa
Visibility 10 km or more

METAR: ENSL 132050Z AUTO 24021KT 9999NDV OVC042/// 11/09 Q1014 W08/S4

Time: 22:22 (21:22 UTC)

Forecast

The report was made 10 hours and 22 minutes ago, at 11:00 UTC
Forecast valid from 13 at 12 UTC to 13 at 18 UTC
Wind 18 kt from the South/Southwest
Visibility 10 km or more
Few clouds at a height of 1200 ft
Scattered clouds at a height of 3500 ft
Probability 30% :
Temporary
from 13 at 12 UTC to 13 at 14 UTC
Broken clouds at a height of 1400 ft
Scattered clouds at a height of 2500 ft, Cumulonimbus.
rain showers
Becoming
from 13 at 12 UTC to 13 at 14 UTC
Wind 20 kt from the West

TAF: ENSL 131100Z 1312/1318 21018KT 9999 FEW012 SCT035 PROB30 TEMPO 1312/1314 SHRA BKN014 SCT025CB BECMG 1312/1314 27020KT

Weather observations and forecasts of more than 4000 airports (METAR and TAF reports).

The available stations are represented by yellow and red dots on the map.

Hover mouse over dot to see the name of the station.

Then click to see weather observations and forecasts.

To change the map : click on the green buttons with a black cross to zoom in, on the green button with a dash to zoom out, or on the green arrows for adjacent maps.


METAR-TAF: